Terminal Aerodrome Forecast
Issued by NWS

Home | Current Version | Previous Version | Text Only | Print | Product List | Glossary On
Versions: 1 2 3 4 5 6 7 8 9 10 11 12 13 14 15 16 17 18 19 20 21 22 23 24 25
000
FTUS44 KOUN 011727
TAFPNC
TAF
KPNC 011727Z 0118/0218 17007KT P6SM FEW040 SCT250
     FM020200 14006KT P6SM FEW150 BKN250
     FM021500 18009KT P6SM FEW060 BKN250=

USA.gov is the U.S. government's official web portal to all federal, state and local government web resources and services.